Time;durP1;ratioP1;P1;durP2;ratioP2;P2;SDS_P1;SDS_P2;PMS_P1;PMS_P2;Temp;Humidity;BMP_temperature;BMP_pressure;BME280_temperature;BME280_humidity;BME280_pressure;Samples;Min_cycle;Max_cycle;Signal;HPM_P1;HPM_P2
2024/02/13 00:01:20;;;;;;;;;;;6.40;99.90;;;;;;5049297;28;19921;-77
2024/02/13 00:03:51;;;;;;;;;;;6.40;99.90;;;;;;5053041;28;19917;-78
2024/02/13 00:06:28;;;;;;;;;;;6.30;99.90;;;;;;5021714;28;19917;-77
2024/02/13 00:08:57;;;;;;;;;;;6.30;99.90;;;;;;5020396;28;19940;-76
2024/02/13 00:11:24;;;;;;;;;;;6.30;99.90;;;;;;5053318;28;19994;-76
2024/02/13 00:13:52;;;;;;;;;;;6.40;99.90;;;;;;5049730;28;19917;-76
2024/02/13 00:16:20;;;;;;;;;;;6.30;99.90;;;;;;5054356;28;20291;-76
2024/02/13 00:18:52;;;;;;;;;;;6.30;99.90;;;;;;5037739;28;19935;-76
2024/02/13 00:21:20;;;;;;;;;;;6.30;99.90;;;;;;5036271;28;20323;-77
2024/02/13 00:23:49;;;;;;;;;;;6.30;99.90;;;;;;5047606;28;19917;-76
2024/02/13 00:26:15;;;;;;;;;;;6.20;99.90;;;;;;5037656;28;19927;-76
2024/02/13 00:28:41;;;;;;;;;;;6.10;99.90;;;;;;5052583;28;19916;-77
2024/02/13 00:31:10;;;;;;;;;;;6.10;99.90;;;;;;5054185;28;19923;-76
2024/02/13 00:33:38;;;;;;;;;;;6.10;99.90;;;;;;5054989;28;19913;-77
2024/02/13 00:36:07;;;;;;;;;;;6.10;99.90;;;;;;5044417;28;19921;-77
2024/02/13 00:38:33;;;;;;;;;;;6.10;99.90;;;;;;5037149;28;19917;-77
2024/02/13 00:41:14;;;;;;;;;;;6.00;99.90;;;;;;5037142;28;22036;-75
2024/02/13 00:46:32;;;;;;;;;;;6.00;99.90;;;;;;5049966;28;20268;-77
2024/02/13 00:49:00;;;;;;;;;;;6.00;99.90;;;;;;5051495;28;19913;-76
2024/02/13 00:51:26;;;;;;;;;;;5.90;99.90;;;;;;5008702;28;19923;-77
2024/02/13 00:53:53;;;;;;;;;;;5.90;99.90;;;;;;5021283;28;20347;-77
2024/02/13 00:56:21;;;;;;;;;;;5.80;99.90;;;;;;5053549;28;19916;-77
2024/02/13 00:58:49;;;;;;;;;;;5.70;99.90;;;;;;5024953;28;19947;-77
2024/02/13 01:01:21;;;;;;;;;;;5.60;99.90;;;;;;5031885;28;20004;-77
2024/02/13 01:03:49;;;;;;;;;;;5.70;99.90;;;;;;5051569;28;20151;-77
2024/02/13 01:06:20;;;;;;;;;;;5.70;99.90;;;;;;5053355;28;20625;-77
2024/02/13 01:08:46;;;;;;;;;;;5.70;99.90;;;;;;5042543;28;19913;-77
2024/02/13 01:11:17;;;;;;;;;;;5.70;99.90;;;;;;5052680;28;19924;-77
2024/02/13 01:13:44;;;;;;;;;;;5.70;99.90;;;;;;5037786;28;19956;-77
2024/02/13 01:16:10;;;;;;;;;;;5.80;99.90;;;;;;5037044;28;19924;-76
2024/02/13 01:18:38;;;;;;;;;;;5.60;99.90;;;;;;5053162;28;19917;-77
2024/02/13 01:21:05;;;;;;;;;;;5.60;99.90;;;;;;5053499;28;20287;-78
2024/02/13 01:23:33;;;;;;;;;;;5.60;99.90;;;;;;5038065;28;20319;-77
2024/02/13 01:26:03;;;;;;;;;;;5.60;99.90;;;;;;5041066;28;19916;-77
2024/02/13 01:28:33;;;;;;;;;;;5.60;99.90;;;;;;5040841;28;19924;-76
2024/02/13 01:31:09;;;;;;;;;;;5.60;99.90;;;;;;5029291;28;19913;-76
2024/02/13 01:33:37;;;;;;;;;;;5.60;99.90;;;;;;5020724;28;19967;-78
2024/02/13 01:36:07;;;;;;;;;;;5.70;99.90;;;;;;5054694;28;20003;-77
2024/02/13 01:38:36;;;;;;;;;;;5.60;99.90;;;;;;5039517;28;19924;-78
2024/02/13 01:41:10;;;;;;;;;;;5.70;99.90;;;;;;5056808;28;19919;-78
2024/02/13 01:43:40;;;;;;;;;;;5.70;99.90;;;;;;5026273;28;19944;-78
2024/02/13 01:46:12;;;;;;;;;;;5.60;99.90;;;;;;5038890;28;19925;-77
2024/02/13 01:48:46;;;;;;;;;;;5.70;99.90;;;;;;5052895;28;19913;-77
2024/02/13 01:51:43;;;;;;;;;;;5.60;99.90;;;;;;5037367;28;19921;-76
2024/02/13 01:54:12;;;;;;;;;;;5.70;99.90;;;;;;5050468;28;20581;-77
2024/02/13 01:56:43;;;;;;;;;;;5.70;99.90;;;;;;5057467;28;19924;-77
2024/02/13 01:59:14;;;;;;;;;;;5.80;99.90;;;;;;5023633;28;19929;-76
2024/02/13 02:01:43;;;;;;;;;;;5.70;99.90;;;;;;5040830;28;20321;-76
2024/02/13 02:04:16;;;;;;;;;;;5.80;99.90;;;;;;5008522;28;19913;-76
2024/02/13 02:06:51;;;;;;;;;;;5.70;99.90;;;;;;5045506;28;20567;-77
2024/02/13 02:09:20;;;;;;;;;;;5.80;99.90;;;;;;5041220;28;19939;-77
2024/02/13 02:11:46;;;;;;;;;;;5.80;99.90;;;;;;5045832;28;19917;-76
2024/02/13 02:14:12;;;;;;;;;;;5.80;99.90;;;;;;5020220;28;19917;-77
2024/02/13 02:16:41;;;;;;;;;;;5.80;99.90;;;;;;5046032;28;20642;-77
2024/02/13 02:19:18;;;;;;;;;;;5.80;99.90;;;;;;5051710;28;19927;-77
2024/02/13 02:21:58;;;;;;;;;;;;;;;;;;;;;
2024/02/13 02:24:30;;;;;;;;;;;5.80;99.90;;;;;;5054582;28;19920;-76
2024/02/13 02:26:59;;;;;;;;;;;5.80;99.90;;;;;;5055866;28;19951;-77
2024/02/13 02:29:47;;;;;;;;;;;5.80;99.90;;;;;;5055769;28;19928;-76
2024/02/13 02:32:18;;;;;;;;;;;5.90;99.90;;;;;;5055959;28;19913;-77
2024/02/13 02:34:44;;;;;;;;;;;5.80;99.90;;;;;;5023078;28;19917;-77
2024/02/13 02:37:27;;;;;;;;;;;5.80;99.90;;;;;;5051126;28;19919;-76
2024/02/13 02:39:56;;;;;;;;;;;5.90;99.90;;;;;;5037292;28;19998;-76
2024/02/13 02:42:22;;;;;;;;;;;5.70;99.90;;;;;;5032914;28;19917;-76
2024/02/13 02:44:52;;;;;;;;;;;5.80;99.90;;;;;;5029044;28;20329;-78
2024/02/13 02:47:46;;;;;;;;;;;;;;;;;;;;;
2024/02/13 02:50:17;;;;;;;;;;;5.80;99.90;;;;;;5039082;28;19917;-78
2024/02/13 02:52:44;;;;;;;;;;;5.80;99.90;;;;;;5039359;28;19920;-77
2024/02/13 02:55:13;;;;;;;;;;;5.80;99.90;;;;;;5051299;28;20567;-77
2024/02/13 02:57:56;;;;;;;;;;;5.80;99.90;;;;;;5052411;28;20012;-77
2024/02/13 03:00:25;;;;;;;;;;;5.90;99.90;;;;;;5056362;28;19995;-77
2024/02/13 03:02:51;;;;;;;;;;;5.70;99.90;;;;;;5031223;28;19986;-76
2024/02/13 03:05:18;;;;;;;;;;;5.90;99.90;;;;;;5039945;28;19917;-76
2024/02/13 03:07:45;;;;;;;;;;;5.90;99.90;;;;;;5022054;28;20051;-76
2024/02/13 03:10:14;;;;;;;;;;;5.90;99.90;;;;;;5051254;28;19928;-75
2024/02/13 03:12:39;;;;;;;;;;;5.90;99.90;;;;;;5030532;28;19917;-77
2024/02/13 03:15:06;;;;;;;;;;;5.90;99.90;;;;;;5037018;28;20004;-77
2024/02/13 03:17:31;;;;;;;;;;;5.80;99.90;;;;;;5024096;28;20366;-76
2024/02/13 03:20:03;;;;;;;;;;;5.70;99.90;;;;;;5029755;28;19958;-76
2024/02/13 03:22:36;;;;;;;;;;;5.80;99.90;;;;;;5055358;28;19970;-77
2024/02/13 03:25:05;;;;;;;;;;;5.80;99.90;;;;;;5040470;28;19924;-76
2024/02/13 03:27:36;;;;;;;;;;;5.80;99.90;;;;;;5034264;28;20013;-76
2024/02/13 03:30:24;;;;;;;;;;;5.80;99.90;;;;;;5055365;28;20015;-76
2024/02/13 03:32:59;;;;;;;;;;;5.80;99.90;;;;;;5054418;28;19916;-77
2024/02/13 03:35:38;;;;;;;;;;;5.80;99.90;;;;;;5052752;28;19939;-77
2024/02/13 03:38:04;;;;;;;;;;;5.60;99.90;;;;;;5055284;28;19916;-76
2024/02/13 03:40:30;;;;;;;;;;;5.60;99.90;;;;;;5055035;28;19927;-76
2024/02/13 03:42:56;;;;;;;;;;;5.70;99.90;;;;;;5018228;28;20246;-77
2024/02/13 03:45:25;;;;;;;;;;;5.60;99.90;;;;;;5043699;28;19921;-78
2024/02/13 03:48:04;;;;;;;;;;;;;;;;;;;;;
2024/02/13 03:50:45;;;;;;;;;;;5.60;99.90;;;;;;5054802;28;20364;-76
2024/02/13 03:53:13;;;;;;;;;;;5.50;99.90;;;;;;5037779;28;19920;-75
2024/02/13 03:55:47;;;;;;;;;;;5.50;99.90;;;;;;5042458;28;20225;-77
2024/02/13 03:58:15;;;;;;;;;;;5.50;99.90;;;;;;5041582;28;19928;-78
2024/02/13 04:01:01;;;;;;;;;;;5.50;99.90;;;;;;5053140;28;19939;-77
2024/02/13 04:03:44;;;;;;;;;;;5.50;99.90;;;;;;5021044;28;19928;-77
2024/02/13 04:06:17;;;;;;;;;;;5.50;99.90;;;;;;5052148;28;19940;-76
2024/02/13 04:08:46;;;;;;;;;;;5.60;99.90;;;;;;5035481;28;19925;-75
2024/02/13 04:11:12;;;;;;;;;;;5.50;99.90;;;;;;5038159;28;20287;-77
2024/02/13 04:13:40;;;;;;;;;;;5.60;99.90;;;;;;5022565;28;19917;-76
2024/02/13 04:16:10;;;;;;;;;;;5.40;99.90;;;;;;5035997;28;19927;-76
2024/02/13 04:18:36;;;;;;;;;;;5.40;99.90;;;;;;5021472;28;19941;-75
2024/02/13 04:21:02;;;;;;;;;;;5.40;99.90;;;;;;5048467;28;19952;-75
2024/02/13 04:23:35;;;;;;;;;;;5.50;99.90;;;;;;5053356;28;20607;-76
2024/02/13 04:26:10;;;;;;;;;;;5.50;99.90;;;;;;5022655;28;19951;-76
2024/02/13 04:28:35;;;;;;;;;;;5.50;99.90;;;;;;5053853;28;19913;-76
2024/02/13 04:31:01;;;;;;;;;;;5.50;99.90;;;;;;5053535;28;19916;-76
2024/02/13 04:33:50;;;;;;;;;;;5.40;99.90;;;;;;5053993;28;19955;-75
2024/02/13 04:36:24;;;;;;;;;;;5.40;99.90;;;;;;5050804;28;20427;-76
2024/02/13 04:38:50;;;;;;;;;;;5.50;99.90;;;;;;5046238;28;20537;-76
2024/02/13 04:41:19;;;;;;;;;;;5.50;99.90;;;;;;5025813;28;19945;-77
2024/02/13 04:44:02;;;;;;;;;;;5.50;99.90;;;;;;5024199;28;20318;-76
2024/02/13 04:46:31;;;;;;;;;;;5.50;99.90;;;;;;5037889;28;19966;-77
2024/02/13 04:49:00;;;;;;;;;;;5.40;99.90;;;;;;5036453;28;19960;-77
2024/02/13 04:51:31;;;;;;;;;;;5.50;99.90;;;;;;5021074;28;20249;-77
2024/02/13 04:53:57;;;;;;;;;;;5.60;99.90;;;;;;5053285;28;19931;-76
2024/02/13 04:56:36;;;;;;;;;;;5.50;99.90;;;;;;5038360;28;19913;-78
2024/02/13 04:59:07;;;;;;;;;;;5.50;99.90;;;;;;5036349;28;19925;-77
2024/02/13 05:01:43;;;;;;;;;;;5.40;99.90;;;;;;5037956;28;19913;-77
2024/02/13 05:09:35;;;;;;;;;;;5.40;99.90;;;;;;5053749;28;19921;-77
2024/02/13 05:12:01;;;;;;;;;;;5.40;99.90;;;;;;5030490;28;19999;-77
2024/02/13 05:14:30;;;;;;;;;;;5.30;99.90;;;;;;5020275;28;20003;-77
2024/02/13 05:17:02;;;;;;;;;;;5.20;99.90;;;;;;5036072;28;19921;-78
2024/02/13 05:19:28;;;;;;;;;;;5.40;99.90;;;;;;5046123;28;19921;-77
2024/02/13 05:21:56;;;;;;;;;;;5.30;99.90;;;;;;5020455;28;19916;-77
2024/02/13 05:24:48;;;;;;;;;;;5.40;99.90;;;;;;5054006;28;19913;-77
2024/02/13 05:27:21;;;;;;;;;;;5.30;99.90;;;;;;5050849;28;19913;-78
2024/02/13 05:29:49;;;;;;;;;;;5.30;99.90;;;;;;5035287;28;19928;-77
2024/02/13 05:32:16;;;;;;;;;;;5.20;99.90;;;;;;5033089;28;20352;-78
2024/02/13 05:34:45;;;;;;;;;;;5.20;99.90;;;;;;5033933;28;20625;-81
2024/02/13 05:37:11;;;;;;;;;;;5.20;99.90;;;;;;5022286;28;19955;-82
2024/02/13 05:39:37;;;;;;;;;;;5.20;99.90;;;;;;5023937;28;19983;-82
2024/02/13 05:42:05;;;;;;;;;;;5.10;99.90;;;;;;5026029;28;19917;-82
2024/02/13 05:44:30;;;;;;;;;;;5.10;99.90;;;;;;5041364;28;19917;-82
2024/02/13 05:46:57;;;;;;;;;;;5.10;99.90;;;;;;5023758;28;20389;-82
2024/02/13 05:49:22;;;;;;;;;;;5.10;99.90;;;;;;5037589;28;19963;-80
2024/02/13 05:51:48;;;;;;;;;;;5.10;99.90;;;;;;5021018;28;20561;-82
2024/02/13 05:54:14;;;;;;;;;;;5.10;99.90;;;;;;5026725;28;19913;-82
2024/02/13 05:56:40;;;;;;;;;;;5.10;99.90;;;;;;5018714;28;19920;-81
2024/02/13 05:59:06;;;;;;;;;;;5.10;99.90;;;;;;5001325;28;20016;-81
2024/02/13 06:01:32;;;;;;;;;;;5.00;99.90;;;;;;5009838;28;20008;-82
2024/02/13 06:04:05;;;;;;;;;;;5.00;99.90;;;;;;5037474;28;19978;-81
2024/02/13 06:06:32;;;;;;;;;;;5.00;99.90;;;;;;5021385;28;19970;-81
2024/02/13 06:08:58;;;;;;;;;;;5.00;99.90;;;;;;5039099;28;20007;-81
2024/02/13 06:11:26;;;;;;;;;;;5.00;99.90;;;;;;5041325;28;19963;-81
2024/02/13 06:13:52;;;;;;;;;;;5.00;99.90;;;;;;5041274;28;19921;-81
2024/02/13 06:16:20;;;;;;;;;;;5.00;99.90;;;;;;5041503;28;19917;-82
2024/02/13 06:18:46;;;;;;;;;;;4.90;99.90;;;;;;5058561;28;19975;-81
2024/02/13 06:21:13;;;;;;;;;;;4.90;99.90;;;;;;5025258;28;19913;-81
2024/02/13 06:23:40;;;;;;;;;;;4.90;99.90;;;;;;5019060;28;19921;-81
2024/02/13 06:26:09;;;;;;;;;;;4.80;99.90;;;;;;5042194;28;19916;-81
2024/02/13 06:28:35;;;;;;;;;;;4.80;99.90;;;;;;5042727;28;19913;-81
2024/02/13 06:31:03;;;;;;;;;;;4.80;99.90;;;;;;5033912;28;19913;-82
2024/02/13 06:33:29;;;;;;;;;;;4.80;99.90;;;;;;5056357;28;19905;-82
2024/02/13 06:35:54;;;;;;;;;;;4.80;99.90;;;;;;5041169;28;19923;-81
2024/02/13 06:38:20;;;;;;;;;;;4.80;99.90;;;;;;5046266;28;20718;-81
2024/02/13 06:40:46;;;;;;;;;;;4.80;99.90;;;;;;5027271;28;20011;-82
2024/02/13 06:43:12;;;;;;;;;;;4.80;99.90;;;;;;5039460;28;19966;-82
2024/02/13 06:45:38;;;;;;;;;;;4.80;99.90;;;;;;5026558;28;19921;-82
2024/02/13 06:48:05;;;;;;;;;;;4.80;99.90;;;;;;5020490;28;20007;-81
2024/02/13 06:50:32;;;;;;;;;;;4.70;99.90;;;;;;5059604;28;19927;-81
2024/02/13 06:52:58;;;;;;;;;;;4.70;99.90;;;;;;5042276;28;19944;-81
2024/02/13 06:55:24;;;;;;;;;;;4.70;99.90;;;;;;5057530;28;19923;-81
2024/02/13 06:57:50;;;;;;;;;;;4.70;99.90;;;;;;5025043;28;19919;-81
2024/02/13 07:00:16;;;;;;;;;;;4.80;99.90;;;;;;5024490;28;19924;-81
2024/02/13 07:02:42;;;;;;;;;;;4.70;99.90;;;;;;5040774;28;20332;-81
2024/02/13 07:05:09;;;;;;;;;;;4.80;99.90;;;;;;5024165;28;19917;-81
2024/02/13 07:07:35;;;;;;;;;;;4.80;99.90;;;;;;5026943;28;19952;-80
2024/02/13 07:10:01;;;;;;;;;;;4.80;99.90;;;;;;5039478;28;19917;-81
2024/02/13 07:12:27;;;;;;;;;;;4.80;99.90;;;;;;5023196;28;19917;-81
2024/02/13 07:14:54;;;;;;;;;;;4.90;99.90;;;;;;5056452;28;19988;-80
2024/02/13 07:17:19;;;;;;;;;;;4.90;99.90;;;;;;5055020;28;19913;-79
2024/02/13 07:19:45;;;;;;;;;;;4.90;99.90;;;;;;5033140;28;19921;-81
2024/02/13 07:22:11;;;;;;;;;;;4.90;99.90;;;;;;5029135;28;19913;-81
2024/02/13 07:24:37;;;;;;;;;;;4.90;99.90;;;;;;5046194;28;19917;-81
2024/02/13 07:27:05;;;;;;;;;;;4.90;99.90;;;;;;5061550;28;19951;-80
2024/02/13 07:29:34;;;;;;;;;;;5.00;99.90;;;;;;5028380;28;19920;-81
2024/02/13 07:32:05;;;;;;;;;;;5.20;99.90;;;;;;5041625;28;19917;-81
2024/02/13 07:34:37;;;;;;;;;;;5.20;99.90;;;;;;5022715;28;20024;-81
2024/02/13 07:37:04;;;;;;;;;;;5.20;99.90;;;;;;5022797;28;19913;-81
2024/02/13 07:39:47;;;;;;;;;;;5.40;99.90;;;;;;5022693;28;19986;-81
2024/02/13 07:45:07;;;;;;;;;;;5.70;99.90;;;;;;5018679;28;19974;-81
2024/02/13 07:47:35;;;;;;;;;;;5.70;99.90;;;;;;5024833;28;19920;-81
2024/02/13 07:50:03;;;;;;;;;;;5.80;99.90;;;;;;5056061;28;20325;-81
2024/02/13 07:52:31;;;;;;;;;;;5.90;99.90;;;;;;5025024;28;19928;-80
2024/02/13 07:54:59;;;;;;;;;;;5.90;99.90;;;;;;5024656;28;20297;-80
2024/02/13 07:57:26;;;;;;;;;;;5.80;99.90;;;;;;5020313;28;19959;-76
2024/02/13 07:59:58;;;;;;;;;;;5.70;99.90;;;;;;5055197;28;19921;-78
2024/02/13 08:02:25;;;;;;;;;;;5.70;99.90;;;;;;5055400;28;19979;-77
2024/02/13 08:04:51;;;;;;;;;;;5.50;99.90;;;;;;5054888;28;19967;-78
2024/02/13 08:07:18;;;;;;;;;;;5.60;99.90;;;;;;5034464;28;20233;-78
2024/02/13 08:09:43;;;;;;;;;;;5.60;99.90;;;;;;5045676;28;19939;-77
2024/02/13 08:12:09;;;;;;;;;;;5.50;99.90;;;;;;5054846;28;19917;-78
2024/02/13 08:14:36;;;;;;;;;;;5.60;99.90;;;;;;5050054;28;19917;-77
2024/02/13 08:17:06;;;;;;;;;;;5.50;99.90;;;;;;5036425;28;19916;-79
2024/02/13 08:19:34;;;;;;;;;;;5.60;99.90;;;;;;5037718;28;20333;-79
2024/02/13 08:22:00;;;;;;;;;;;5.60;99.90;;;;;;5021156;28;20015;-79
2024/02/13 08:24:26;;;;;;;;;;;5.70;99.90;;;;;;5033931;28;20003;-77
2024/02/13 08:26:52;;;;;;;;;;;5.60;99.90;;;;;;5034173;28;19920;-80
2024/02/13 08:29:19;;;;;;;;;;;5.70;99.90;;;;;;5018911;28;20020;-77
2024/02/13 08:31:45;;;;;;;;;;;5.80;99.90;;;;;;5023288;28;19974;-78
2024/02/13 08:34:11;;;;;;;;;;;5.80;99.90;;;;;;5022766;28;19959;-77
2024/02/13 08:36:38;;;;;;;;;;;5.90;99.90;;;;;;5038134;28;19917;-76
2024/02/13 08:39:04;;;;;;;;;;;5.90;99.90;;;;;;5037990;28;19912;-78
2024/02/13 08:41:31;;;;;;;;;;;5.90;99.90;;;;;;5003664;28;20250;-75
2024/02/13 08:43:58;;;;;;;;;;;5.90;99.90;;;;;;5008188;28;19916;-76
2024/02/13 08:46:23;;;;;;;;;;;6.00;99.90;;;;;;5054000;28;20003;-77
2024/02/13 08:48:50;;;;;;;;;;;6.00;99.90;;;;;;5054232;28;20411;-77
2024/02/13 08:51:18;;;;;;;;;;;6.00;99.90;;;;;;5054382;28;19998;-76
2024/02/13 08:53:49;;;;;;;;;;;6.00;99.90;;;;;;5037327;28;19917;-77
2024/02/13 08:56:15;;;;;;;;;;;6.10;99.90;;;;;;5038106;28;19951;-76
2024/02/13 08:58:40;;;;;;;;;;;6.20;99.90;;;;;;5044811;28;19953;-77
2024/02/13 09:01:07;;;;;;;;;;;6.20;99.90;;;;;;5037674;28;19925;-77
2024/02/13 09:03:33;;;;;;;;;;;6.30;99.90;;;;;;5053251;28;19921;-77
2024/02/13 09:06:04;;;;;;;;;;;6.30;99.90;;;;;;5036881;28;19917;-77
2024/02/13 09:08:33;;;;;;;;;;;6.30;99.90;;;;;;5038850;28;19974;-75
2024/02/13 09:11:18;;;;;;;;;;;6.40;99.90;;;;;;5056781;28;19924;-76
2024/02/13 09:13:45;;;;;;;;;;;6.40;99.90;;;;;;5035438;28;19917;-77
2024/02/13 09:16:11;;;;;;;;;;;6.40;99.90;;;;;;5037022;28;19916;-77
2024/02/13 09:18:38;;;;;;;;;;;6.40;99.90;;;;;;5046213;28;19927;-76
2024/02/13 09:21:06;;;;;;;;;;;6.40;99.90;;;;;;5015982;28;19921;-77
2024/02/13 09:23:35;;;;;;;;;;;6.50;99.90;;;;;;5020368;28;19913;-77
2024/02/13 09:26:05;;;;;;;;;;;6.40;99.90;;;;;;5052861;28;19923;-77
2024/02/13 09:28:31;;;;;;;;;;;6.50;99.90;;;;;;5053895;28;19917;-76
2024/02/13 09:30:58;;;;;;;;;;;6.50;99.90;;;;;;5053624;28;19932;-76
2024/02/13 09:33:24;;;;;;;;;;;6.50;99.90;;;;;;5054905;28;19945;-77
2024/02/13 09:35:50;;;;;;;;;;;6.50;99.90;;;;;;5039608;28;19916;-76
2024/02/13 09:38:19;;;;;;;;;;;6.60;99.90;;;;;;5056499;28;19951;-76
2024/02/13 09:40:48;;;;;;;;;;;6.50;99.90;;;;;;5064565;28;20404;-77
2024/02/13 09:43:14;;;;;;;;;;;6.50;99.90;;;;;;5033880;28;20333;-77
2024/02/13 09:45:41;;;;;;;;;;;6.60;99.90;;;;;;5040109;28;19913;-76
2024/02/13 09:48:08;;;;;;;;;;;6.50;99.90;;;;;;5040669;28;19966;-77
2024/02/13 09:50:36;;;;;;;;;;;6.50;99.90;;;;;;5041266;28;19948;-78
2024/02/13 09:53:03;;;;;;;;;;;6.60;99.90;;;;;;5005971;28;19917;-76
2024/02/13 09:55:28;;;;;;;;;;;6.70;99.90;;;;;;5040371;28;19943;-77
2024/02/13 09:57:55;;;;;;;;;;;6.50;99.90;;;;;;5039437;28;19913;-77
2024/02/13 10:00:24;;;;;;;;;;;6.70;99.90;;;;;;5037141;28;19921;-77
2024/02/13 10:02:50;;;;;;;;;;;6.70;99.90;;;;;;5025188;28;19916;-77
2024/02/13 10:05:20;;;;;;;;;;;6.70;99.90;;;;;;5023420;28;19939;-76
2024/02/13 10:07:46;;;;;;;;;;;6.80;99.90;;;;;;5040641;28;20396;-76
2024/02/13 10:10:12;;;;;;;;;;;6.80;99.90;;;;;;5039804;28;19916;-77
2024/02/13 10:12:48;;;;;;;;;;;6.80;99.90;;;;;;5038863;28;19921;-78
2024/02/13 10:15:13;;;;;;;;;;;6.80;99.90;;;;;;5039728;28;19913;-78
2024/02/13 10:17:44;;;;;;;;;;;6.80;99.90;;;;;;5023446;28;19921;-78
2024/02/13 10:20:17;;;;;;;;;;;6.70;99.90;;;;;;5044400;28;19970;-77
2024/02/13 10:22:47;;;;;;;;;;;6.90;99.90;;;;;;5071702;28;19917;-77
2024/02/13 10:25:18;;;;;;;;;;;6.80;99.90;;;;;;5057399;28;19917;-75
2024/02/13 10:27:46;;;;;;;;;;;6.80;99.90;;;;;;5056958;28;19925;-76
2024/02/13 10:30:20;;;;;;;;;;;6.90;99.90;;;;;;5056828;28;19923;-78
2024/02/13 10:32:46;;;;;;;;;;;6.90;99.90;;;;;;5024494;28;19913;-79
2024/02/13 10:35:11;;;;;;;;;;;7.00;99.90;;;;;;5057290;28;20295;-79
2024/02/13 10:37:38;;;;;;;;;;;6.90;99.90;;;;;;5040663;28;19923;-81
2024/02/13 10:40:07;;;;;;;;;;;6.90;99.90;;;;;;5040674;28;19928;-81
2024/02/13 10:42:37;;;;;;;;;;;6.90;99.90;;;;;;5057073;28;19920;-81
2024/02/13 10:45:06;;;;;;;;;;;6.90;99.90;;;;;;5046653;28;19924;-81
2024/02/13 10:47:32;;;;;;;;;;;7.00;99.90;;;;;;5020684;28;20082;-79
2024/02/13 10:49:59;;;;;;;;;;;7.00;99.90;;;;;;5039807;28;20392;-81
2024/02/13 10:52:26;;;;;;;;;;;7.10;99.90;;;;;;5055876;28;19923;-79
2024/02/13 10:54:52;;;;;;;;;;;7.00;99.90;;;;;;5056145;28;19971;-81
2024/02/13 10:57:18;;;;;;;;;;;7.10;99.90;;;;;;5055171;28;20394;-81
2024/02/13 10:59:45;;;;;;;;;;;7.10;99.90;;;;;;5055491;28;19934;-81
2024/02/13 11:02:20;;;;;;;;;;;7.10;99.90;;;;;;5038924;28;19966;-80
2024/02/13 11:04:46;;;;;;;;;;;7.10;99.90;;;;;;5035765;28;20310;-80
2024/02/13 11:07:15;;;;;;;;;;;7.10;99.90;;;;;;5038497;28;19962;-80
2024/02/13 11:09:41;;;;;;;;;;;7.20;99.90;;;;;;5055418;28;20308;-81
2024/02/13 11:12:07;;;;;;;;;;;7.20;99.90;;;;;;5023962;28;19917;-81
2024/02/13 11:14:32;;;;;;;;;;;7.30;99.90;;;;;;5019333;28;19979;-81
2024/02/13 11:16:59;;;;;;;;;;;7.40;99.90;;;;;;5052902;28;19931;-81
2024/02/13 11:19:24;;;;;;;;;;;7.50;99.90;;;;;;5038118;28;19920;-79
2024/02/13 11:21:51;;;;;;;;;;;7.50;99.90;;;;;;5038112;28;20319;-81
2024/02/13 11:24:21;;;;;;;;;;;7.70;99.90;;;;;;5034652;28;19913;-81
2024/02/13 11:26:46;;;;;;;;;;;7.80;99.90;;;;;;5051225;28;19913;-80
2024/02/13 11:29:19;;;;;;;;;;;7.90;99.90;;;;;;5055706;28;20412;-81
2024/02/13 11:31:58;;;;;;;;;;;8.00;99.90;;;;;;5029379;28;20004;-81
2024/02/13 11:34:40;;;;;;;;;;;8.20;99.90;;;;;;5035442;28;19917;-79
2024/02/13 11:37:13;;;;;;;;;;;8.10;99.90;;;;;;5038615;28;19913;-80
2024/02/13 11:39:40;;;;;;;;;;;8.20;99.90;;;;;;5041299;28;19983;-78
2024/02/13 11:42:06;;;;;;;;;;;8.20;99.90;;;;;;5019228;28;19940;-80
2024/02/13 11:44:36;;;;;;;;;;;8.30;99.90;;;;;;5038138;28;19917;-80
2024/02/13 11:47:03;;;;;;;;;;;8.60;99.90;;;;;;5054293;28;20360;-80
2024/02/13 11:49:30;;;;;;;;;;;8.80;99.90;;;;;;5021053;28;19921;-81
2024/02/13 11:51:56;;;;;;;;;;;9.00;99.90;;;;;;5029472;28;19917;-81
2024/02/13 11:54:22;;;;;;;;;;;9.20;99.90;;;;;;5053022;28;19916;-81
2024/02/13 11:56:48;;;;;;;;;;;9.50;99.90;;;;;;5056421;28;19924;-81
2024/02/13 11:59:13;;;;;;;;;;;9.70;99.90;;;;;;5038262;28;19917;-80
2024/02/13 12:01:42;;;;;;;;;;;9.60;99.90;;;;;;5027080;28;19917;-78
2024/02/13 12:04:11;;;;;;;;;;;9.60;99.90;;;;;;5049676;28;19932;-78
2024/02/13 12:06:41;;;;;;;;;;;9.60;99.90;;;;;;5053476;28;19913;-80
2024/02/13 12:09:07;;;;;;;;;;;9.70;99.90;;;;;;5054313;28;19923;-81
2024/02/13 12:11:36;;;;;;;;;;;9.70;99.90;;;;;;5023967;28;19967;-79
2024/02/13 12:14:03;;;;;;;;;;;10.10;99.90;;;;;;5021741;28;20367;-81
2024/02/13 12:16:29;;;;;;;;;;;10.50;99.90;;;;;;5038256;28;20051;-78
2024/02/13 12:19:01;;;;;;;;;;;10.90;99.90;;;;;;5052699;28;19923;-78
2024/02/13 12:21:27;;;;;;;;;;;11.20;99.90;;;;;;5034521;28;19928;-80
2024/02/13 12:23:53;;;;;;;;;;;10.80;99.90;;;;;;5051240;28;20218;-80
2024/02/13 12:26:19;;;;;;;;;;;10.90;99.90;;;;;;5022449;28;19955;-79
2024/02/13 12:28:57;;;;;;;;;;;10.80;99.90;;;;;;5017851;28;20302;-79
2024/02/13 12:31:26;;;;;;;;;;;10.80;99.90;;;;;;5033546;28;19921;-78
2024/02/13 12:34:10;;;;;;;;;;;10.90;99.90;;;;;;5018002;28;20328;-80
2024/02/13 12:36:38;;;;;;;;;;;11.10;99.90;;;;;;5034065;28;19913;-80
2024/02/13 12:39:20;;;;;;;;;;;10.80;99.90;;;;;;5034482;28;19921;-81
2024/02/13 12:41:47;;;;;;;;;;;11.00;99.90;;;;;;5019687;28;19917;-80
2024/02/13 12:44:13;;;;;;;;;;;11.20;99.90;;;;;;5035172;28;19916;-78
2024/02/13 12:46:39;;;;;;;;;;;11.60;99.90;;;;;;5057531;28;20229;-79
2024/02/13 12:49:06;;;;;;;;;;;11.80;99.90;;;;;;5054001;28;19917;-78
2024/02/13 12:51:33;;;;;;;;;;;12.00;99.90;;;;;;5052685;28;19920;-81
2024/02/13 12:54:03;;;;;;;;;;;11.80;99.90;;;;;;5054915;28;19912;-80
2024/02/13 12:56:28;;;;;;;;;;;12.00;99.90;;;;;;5035482;28;20287;-81
2024/02/13 12:58:56;;;;;;;;;;;12.40;99.90;;;;;;5018306;28;19971;-80
2024/02/13 13:01:37;;;;;;;;;;;12.20;99.90;;;;;;5035337;28;19957;-80
2024/02/13 13:04:04;;;;;;;;;;;11.90;99.90;;;;;;5023669;28;20288;-80
2024/02/13 13:06:33;;;;;;;;;;;11.70;99.90;;;;;;5020992;28;20015;-79
2024/02/13 13:09:01;;;;;;;;;;;11.40;99.90;;;;;;5021458;28;19916;-80
2024/02/13 13:11:27;;;;;;;;;;;11.30;99.90;;;;;;5038323;28;19927;-79
2024/02/13 13:13:57;;;;;;;;;;;11.00;99.90;;;;;;5034148;28;19917;-78
2024/02/13 13:16:27;;;;;;;;;;;10.80;99.90;;;;;;5020544;28;19917;-78
2024/02/13 13:18:52;;;;;;;;;;;10.90;99.90;;;;;;5034904;28;20246;-79
2024/02/13 13:21:18;;;;;;;;;;;10.70;99.90;;;;;;5039862;28;19924;-78
2024/02/13 13:23:48;;;;;;;;;;;10.60;99.90;;;;;;5041371;28;19913;-77
2024/02/13 13:26:15;;;;;;;;;;;10.60;99.90;;;;;;5042480;28;20273;-78
2024/02/13 13:28:45;;;;;;;;;;;10.60;99.90;;;;;;5041322;28;20707;-77
2024/02/13 13:31:14;;;;;;;;;;;10.50;99.90;;;;;;5041800;28;19920;-77
2024/02/13 13:33:41;;;;;;;;;;;10.30;99.90;;;;;;5041385;28;19912;-79
2024/02/13 13:36:07;;;;;;;;;;;10.40;99.90;;;;;;5040632;28;19934;-78
2024/02/13 13:38:33;;;;;;;;;;;10.30;99.90;;;;;;5021328;28;19917;-79
2024/02/13 13:41:01;;;;;;;;;;;10.30;99.90;;;;;;5039738;28;19932;-78
2024/02/13 13:43:28;;;;;;;;;;;10.10;99.90;;;;;;5040444;28;19947;-79
2024/02/13 13:45:56;;;;;;;;;;;10.30;99.90;;;;;;5037889;28;19913;-77
2024/02/13 13:48:23;;;;;;;;;;;10.30;99.90;;;;;;5037026;28;20610;-78
2024/02/13 13:50:49;;;;;;;;;;;10.30;99.90;;;;;;5037217;28;19925;-78
2024/02/13 13:53:15;;;;;;;;;;;10.10;99.90;;;;;;5020901;28;19928;-78
2024/02/13 13:55:40;;;;;;;;;;;9.90;99.90;;;;;;5004532;28;19921;-78
2024/02/13 13:58:09;;;;;;;;;;;9.80;99.90;;;;;;5013056;28;19924;-78
2024/02/13 14:00:35;;;;;;;;;;;9.70;99.90;;;;;;5051399;28;19925;-78
2024/02/13 14:03:06;;;;;;;;;;;9.50;99.90;;;;;;5036408;28;20024;-78
2024/02/13 14:05:33;;;;;;;;;;;9.20;99.90;;;;;;5039835;28;19927;-79
2024/02/13 14:08:02;;;;;;;;;;;9.20;99.90;;;;;;5040182;28;19917;-79
2024/02/13 14:10:28;;;;;;;;;;;9.20;99.90;;;;;;5024157;28;20638;-78
2024/02/13 14:12:54;;;;;;;;;;;9.10;99.90;;;;;;5041244;28;19923;-80
2024/02/13 14:15:21;;;;;;;;;;;9.00;99.90;;;;;;5039998;28;19917;-79
2024/02/13 14:17:47;;;;;;;;;;;9.00;99.90;;;;;;5053124;28;19928;-78
2024/02/13 14:20:14;;;;;;;;;;;9.00;99.90;;;;;;5044713;28;19925;-80
2024/02/13 14:22:41;;;;;;;;;;;9.00;99.90;;;;;;5043962;28;19950;-79
2024/02/13 14:25:07;;;;;;;;;;;8.90;99.90;;;;;;5043628;28;19963;-79
2024/02/13 14:27:33;;;;;;;;;;;9.10;99.90;;;;;;5038392;28;19952;-77
2024/02/13 14:29:59;;;;;;;;;;;9.10;99.90;;;;;;5031792;28;20711;-80
2024/02/13 14:32:25;;;;;;;;;;;9.10;99.90;;;;;;5023119;28;19913;-80
2024/02/13 14:34:50;;;;;;;;;;;9.20;99.90;;;;;;5022506;28;19939;-80
2024/02/13 14:37:18;;;;;;;;;;;9.00;99.90;;;;;;5031451;28;19928;-79
2024/02/13 14:39:45;;;;;;;;;;;9.10;99.90;;;;;;5037752;28;20240;-79
2024/02/13 14:42:11;;;;;;;;;;;9.10;99.90;;;;;;5056437;28;19946;-79
2024/02/13 14:44:36;;;;;;;;;;;9.10;99.90;;;;;;5037496;28;20377;-78
2024/02/13 14:47:04;;;;;;;;;;;9.10;99.90;;;;;;5039911;28;19913;-80
2024/02/13 14:49:34;;;;;;;;;;;9.10;99.90;;;;;;5056022;28;19917;-79
2024/02/13 14:52:04;;;;;;;;;;;9.00;99.90;;;;;;5057011;28;19916;-78